createdAt,value
2018-10-17T00:00:02.995Z,71.20
2018-10-17T00:02:38.123Z,71.40
2018-10-17T00:05:07.591Z,71.60
2018-10-17T00:07:36.732Z,71.60
2018-10-17T00:10:06.654Z,71.70
2018-10-17T00:12:35.686Z,71.80
2018-10-17T00:15:05.005Z,71.60
2018-10-17T00:17:33.917Z,71.60
2018-10-17T00:20:02.854Z,71.60
2018-10-17T00:22:31.805Z,71.80
2018-10-17T00:25:00.858Z,71.90
2018-10-17T00:27:29.761Z,72.10
2018-10-17T00:29:58.636Z,71.00
2018-10-17T00:32:27.685Z,71.10
2018-10-17T00:34:56.613Z,71.50
2018-10-17T00:37:25.477Z,71.50
2018-10-17T00:39:54.321Z,71.50
2018-10-17T00:42:23.285Z,71.30
2018-10-17T00:44:52.447Z,71.40
2018-10-17T00:47:21.304Z,70.90
2018-10-17T00:49:50.169Z,70.50
2018-10-17T00:52:19.004Z,71.10
2018-10-17T00:54:47.861Z,70.90
2018-10-17T00:57:17.805Z,70.80
2018-10-17T00:59:46.697Z,70.70
2018-10-17T01:02:15.605Z,70.70
2018-10-17T01:04:44.489Z,71.60
2018-10-17T01:07:13.446Z,74.20
2018-10-17T01:09:42.233Z,77.80
2018-10-17T01:12:11.135Z,81.50
2018-10-17T01:14:39.989Z,84.70
2018-10-17T01:17:09.027Z,87.40
2018-10-17T01:19:37.959Z,87.40
2018-10-17T01:22:06.896Z,71.30
2018-10-17T01:24:35.757Z,71.10
2018-10-17T01:27:05.065Z,71.20
2018-10-17T01:29:34.012Z,71.30
2018-10-17T01:32:02.853Z,71.40
2018-10-17T01:34:31.682Z,71.40
2018-10-17T01:37:01.567Z,71.40
2018-10-17T01:39:31.113Z,71.50
2018-10-17T01:42:00.742Z,71.60
2018-10-17T01:44:29.785Z,71.70
2018-10-17T01:46:58.715Z,71.80
2018-10-17T01:49:27.557Z,71.90
2018-10-17T01:51:56.409Z,72.00
2018-10-17T01:54:25.277Z,72.10
2018-10-17T01:56:54.117Z,72.20
2018-10-17T01:59:23.052Z,72.30
2018-10-17T02:01:51.971Z,72.50
2018-10-17T02:04:20.874Z,73.40
2018-10-17T02:06:49.826Z,72.60
2018-10-17T02:09:18.821Z,72.80
2018-10-17T02:11:47.734Z,75.20
2018-10-17T02:14:16.657Z,75.00
2018-10-17T02:16:45.530Z,74.80
2018-10-17T02:19:14.499Z,74.60
2018-10-17T02:21:43.320Z,74.40
2018-10-17T02:24:12.174Z,74.40
2018-10-17T02:26:41.064Z,74.30
2018-10-17T02:29:10.057Z,74.40
2018-10-17T02:31:39.437Z,75.20
2018-10-17T02:34:08.286Z,75.30
2018-10-17T02:36:37.577Z,75.10
2018-10-17T02:39:08.941Z,75.00
2018-10-17T02:41:37.797Z,74.90
2018-10-17T02:44:07.175Z,74.80
2018-10-17T02:46:36.181Z,74.80
2018-10-17T02:49:05.528Z,74.70
2018-10-17T02:51:34.429Z,74.70
2018-10-17T02:54:03.357Z,74.60
2018-10-17T02:56:32.211Z,74.60
2018-10-17T02:59:01.081Z,74.50
2018-10-17T03:01:30.033Z,74.70
2018-10-17T03:03:58.880Z,74.70
2018-10-17T03:06:27.785Z,74.90
2018-10-17T03:08:56.717Z,74.80
2018-10-17T03:11:25.546Z,74.90
2018-10-17T03:13:54.473Z,74.90
2018-10-17T03:16:23.331Z,75.00
2018-10-17T03:18:52.249Z,75.00
2018-10-17T03:21:21.146Z,75.70
2018-10-17T03:23:50.154Z,75.80
2018-10-17T03:26:19.145Z,75.70
2018-10-17T03:28:48.044Z,75.70
2018-10-17T03:31:16.986Z,75.70
2018-10-17T03:33:45.838Z,75.70
2018-10-17T03:36:14.758Z,75.60
2018-10-17T03:38:43.699Z,75.70
2018-10-17T03:41:12.592Z,75.70
2018-10-17T03:43:41.528Z,75.70
2018-10-17T03:46:10.413Z,75.70
2018-10-17T03:48:39.246Z,75.80
2018-10-17T03:51:08.113Z,75.90
2018-10-17T03:53:37.087Z,75.90
2018-10-17T03:56:06.086Z,76.00
2018-10-17T03:58:34.983Z,76.00
2018-10-17T04:01:03.879Z,76.00
2018-10-17T04:03:32.709Z,76.10
2018-10-17T04:06:01.600Z,76.10
2018-10-17T04:08:30.431Z,76.20
2018-10-17T04:10:59.377Z,76.50
2018-10-17T04:13:28.278Z,76.50
2018-10-17T04:15:57.129Z,76.60
2018-10-17T04:18:26.017Z,76.60
2018-10-17T04:20:54.902Z,76.60
2018-10-17T04:23:23.768Z,76.70
2018-10-17T04:25:52.713Z,76.80
2018-10-17T04:28:21.619Z,76.80
2018-10-17T04:30:50.505Z,76.90
2018-10-17T04:33:19.370Z,76.80
2018-10-17T04:35:48.854Z,76.90
2018-10-17T04:38:17.838Z,76.90
2018-10-17T04:40:46.698Z,77.00
2018-10-17T04:43:15.650Z,77.20
2018-10-17T04:45:44.595Z,77.10
2018-10-17T04:48:13.556Z,77.20
2018-10-17T04:50:42.552Z,77.20
2018-10-17T04:53:11.534Z,77.30
2018-10-17T04:55:40.454Z,78.80
2018-10-17T04:58:09.310Z,77.60
2018-10-17T05:00:38.224Z,77.50
2018-10-17T05:03:07.110Z,77.60
2018-10-17T05:05:36.026Z,77.50
2018-10-17T05:08:05.327Z,77.50
2018-10-17T05:10:34.229Z,77.40
2018-10-17T05:13:03.334Z,77.30
2018-10-17T05:15:32.414Z,77.40
2018-10-17T05:18:01.310Z,77.40
2018-10-17T05:20:30.150Z,77.30
2018-10-17T05:22:59.087Z,77.30
2018-10-17T05:25:28.033Z,77.30
2018-10-17T05:27:56.854Z,77.30
2018-10-17T05:30:25.760Z,77.20
2018-10-17T05:32:54.741Z,77.20
2018-10-17T05:35:23.595Z,77.10
2018-10-17T05:37:52.638Z,77.10
2018-10-17T05:40:21.741Z,77.20
2018-10-17T05:42:50.628Z,77.10
2018-10-17T05:45:19.542Z,77.00
2018-10-17T05:47:48.547Z,76.60
2018-10-17T05:50:17.402Z,76.40
2018-10-17T05:52:46.425Z,76.10
2018-10-17T05:55:15.410Z,75.90
2018-10-17T05:57:44.398Z,75.50
2018-10-17T06:00:13.425Z,75.20
2018-10-17T06:02:42.351Z,74.70
2018-10-17T06:05:11.301Z,74.50
2018-10-17T06:07:40.221Z,74.40
2018-10-17T06:10:09.595Z,74.40
2018-10-17T06:12:38.609Z,74.50
2018-10-17T06:15:08.034Z,74.50
2018-10-17T06:17:37.043Z,74.60
2018-10-17T06:20:06.609Z,74.70
2018-10-17T06:22:35.456Z,74.80
2018-10-17T06:25:04.477Z,74.80
2018-10-17T06:27:33.406Z,74.80
2018-10-17T06:30:02.262Z,74.70
2018-10-17T06:32:31.101Z,75.50
2018-10-17T06:35:00.073Z,74.70
2018-10-17T06:37:29.760Z,74.60
2018-10-17T06:39:58.674Z,74.20
2018-10-17T06:42:29.964Z,73.70
2018-10-17T06:44:59.325Z,73.20
2018-10-17T06:47:29.138Z,72.50
2018-10-17T06:49:58.153Z,71.80
2018-10-17T06:52:27.169Z,70.90
2018-10-17T06:54:56.121Z,70.10
2018-10-17T06:57:25.066Z,69.40
2018-10-17T06:59:54.010Z,68.70
2018-10-17T07:02:23.024Z,68.10
2018-10-17T07:04:52.179Z,67.60
2018-10-17T07:07:23.242Z,67.10
2018-10-17T07:09:55.414Z,66.60
2018-10-17T07:12:43.212Z,66.20
2018-10-17T07:15:13.925Z,66.00
2018-10-17T07:17:43.509Z,65.60
2018-10-17T07:20:12.814Z,65.20
2018-10-17T07:22:41.753Z,65.10
2018-10-17T07:25:25.564Z,64.80
2018-10-17T07:27:55.949Z,64.60
2018-10-17T07:30:24.803Z,64.10
2018-10-17T07:32:53.716Z,63.80
2018-10-17T07:35:22.729Z,63.50
2018-10-17T07:37:51.727Z,63.00
2018-10-17T07:40:20.653Z,62.50
2018-10-17T07:42:49.590Z,61.90
2018-10-17T07:45:18.518Z,61.30
2018-10-17T07:47:47.465Z,60.60
2018-10-17T07:50:16.453Z,60.10
2018-10-17T07:52:45.744Z,59.80
2018-10-17T07:55:15.079Z,59.80
2018-10-17T07:57:44.514Z,59.80
2018-10-17T08:00:14.311Z,59.60
2018-10-17T08:02:43.239Z,59.10
2018-10-17T08:05:12.135Z,58.80
2018-10-17T08:07:41.030Z,58.60
2018-10-17T08:10:11.090Z,58.60
2018-10-17T08:12:41.506Z,58.60
2018-10-17T08:15:10.620Z,58.60
2018-10-17T08:17:39.622Z,58.40
2018-10-17T08:20:10.191Z,57.90
2018-10-17T08:22:39.586Z,57.50
2018-10-17T08:25:09.805Z,57.10
2018-10-17T08:27:38.863Z,56.60
2018-10-17T08:30:09.254Z,56.20
2018-10-17T08:32:38.758Z,55.80
2018-10-17T08:35:07.915Z,55.60
2018-10-17T08:37:37.585Z,55.50
2018-10-17T08:40:06.911Z,55.50
2018-10-17T08:42:35.893Z,55.40
2018-10-17T08:45:05.405Z,55.30
2018-10-17T08:47:34.285Z,55.20
2018-10-17T08:50:03.324Z,55.20
2018-10-17T08:52:32.326Z,55.30
2018-10-17T08:55:01.272Z,55.20
2018-10-17T08:57:30.248Z,55.20
2018-10-17T08:59:59.196Z,55.00
2018-10-17T09:02:28.188Z,54.70
2018-10-17T09:04:57.101Z,54.70
2018-10-17T09:07:26.117Z,54.60
2018-10-17T09:09:55.064Z,54.50
2018-10-17T09:12:24.006Z,54.20
2018-10-17T09:14:52.947Z,54.20
2018-10-17T09:17:21.946Z,54.50
2018-10-17T09:19:50.968Z,54.60
2018-10-17T09:22:20.037Z,54.70
2018-10-17T09:24:48.821Z,54.90
2018-10-17T09:27:17.718Z,55.20
2018-10-17T09:29:46.614Z,55.20
2018-10-17T09:32:15.874Z,55.20
2018-10-17T09:34:44.772Z,55.10
2018-10-17T09:37:13.702Z,54.30
2018-10-17T09:39:42.657Z,54.10
2018-10-17T09:42:11.676Z,54.10
2018-10-17T09:44:40.561Z,54.00
2018-10-17T09:47:09.454Z,53.90
2018-10-17T09:49:38.416Z,54.00
2018-10-17T09:52:07.445Z,53.90
2018-10-17T09:54:36.375Z,53.90
2018-10-17T09:57:05.432Z,54.00
2018-10-17T09:59:34.529Z,54.00
2018-10-17T10:02:04.043Z,53.90
2018-10-17T10:04:33.079Z,54.00
2018-10-17T10:07:02.008Z,53.90
2018-10-17T10:09:31.104Z,53.90
2018-10-17T10:12:00.068Z,53.80
2018-10-17T10:14:29.087Z,53.80
2018-10-17T10:16:57.994Z,53.60
2018-10-17T10:19:26.922Z,53.40
2018-10-17T10:21:56.029Z,53.40
2018-10-17T10:24:24.874Z,53.40
2018-10-17T10:26:53.841Z,53.30
2018-10-17T10:29:22.896Z,53.20
2018-10-17T10:31:51.833Z,53.30
2018-10-17T10:34:20.843Z,53.40
2018-10-17T10:36:50.546Z,53.50
2018-10-17T10:39:19.390Z,53.60
2018-10-17T10:41:48.321Z,53.80
2018-10-17T10:44:17.424Z,53.80
2018-10-17T10:46:46.395Z,53.80
2018-10-17T10:49:15.379Z,54.00
2018-10-17T10:51:44.345Z,54.20
2018-10-17T10:54:13.287Z,54.30
2018-10-17T10:56:42.146Z,54.30
2018-10-17T10:59:11.085Z,54.20
2018-10-17T11:01:40.050Z,54.00
2018-10-17T11:04:09.042Z,53.90
2018-10-17T11:06:37.979Z,53.60
2018-10-17T11:09:08.270Z,53.50
2018-10-17T11:11:37.653Z,54.20
2018-10-17T11:14:07.304Z,53.60
2018-10-17T11:16:36.141Z,53.70
2018-10-17T11:19:05.422Z,54.50
2018-10-17T11:21:34.433Z,54.00
2018-10-17T11:24:03.355Z,54.10
2018-10-17T11:26:32.294Z,54.20
2018-10-17T11:29:01.336Z,54.00
2018-10-17T11:31:30.542Z,54.00
2018-10-17T11:34:00.968Z,54.00
2018-10-17T11:36:30.010Z,53.90
2018-10-17T11:38:59.071Z,53.70
2018-10-17T11:41:27.987Z,53.60
2018-10-17T11:43:56.910Z,53.60
2018-10-17T11:46:25.994Z,53.40
2018-10-17T11:48:54.894Z,53.30
2018-10-17T11:51:23.861Z,53.30
2018-10-17T11:53:52.763Z,53.20
2018-10-17T11:56:21.751Z,53.00
2018-10-17T11:58:50.662Z,52.80
2018-10-17T12:01:19.544Z,52.50
2018-10-17T12:03:48.692Z,52.30
2018-10-17T12:06:18.871Z,52.00
2018-10-17T12:08:47.750Z,52.40
2018-10-17T12:11:16.806Z,51.60
2018-10-17T12:13:49.062Z,51.40
2018-10-17T12:16:19.132Z,51.10
2018-10-17T12:18:51.574Z,49.90
2018-10-17T12:21:22.226Z,49.80
2018-10-17T12:23:51.129Z,49.50
2018-10-17T12:26:20.845Z,49.20
2018-10-17T12:28:49.875Z,48.80
2018-10-17T12:31:21.563Z,48.30
2018-10-17T12:33:51.033Z,47.60
2018-10-17T12:36:20.694Z,45.90
2018-10-17T12:38:49.670Z,44.40
2018-10-17T12:41:19.150Z,42.90
2018-10-17T12:43:48.248Z,41.20
2018-10-17T12:46:17.230Z,39.20
2018-10-17T12:48:46.158Z,38.40
2018-10-17T12:51:28.063Z,36.30
2018-10-17T12:54:06.498Z,36.30
2018-10-17T12:56:35.829Z,34.30
2018-10-17T12:59:05.344Z,33.40
2018-10-17T13:01:34.323Z,32.80
2018-10-17T13:04:04.989Z,32.30
2018-10-17T13:06:33.894Z,31.90
2018-10-17T13:09:03.143Z,31.70
2018-10-17T13:11:32.116Z,39.50
2018-10-17T13:14:01.995Z,30.60
2018-10-17T13:16:31.358Z,30.00
2018-10-17T13:19:04.619Z,29.60
2018-10-17T13:21:42.599Z,29.00
2018-10-17T13:24:11.510Z,28.50
2018-10-17T13:26:40.712Z,28.30
2018-10-17T13:29:09.834Z,28.30
2018-10-17T13:31:39.091Z,28.60
2018-10-17T13:34:08.135Z,28.70
2018-10-17T13:36:37.192Z,28.70
2018-10-17T13:39:09.602Z,29.30
2018-10-17T13:41:39.477Z,29.80
2018-10-17T13:44:09.685Z,29.90
2018-10-17T13:46:38.927Z,30.00
2018-10-17T13:49:08.210Z,29.70
2018-10-17T13:51:37.026Z,29.50
2018-10-17T13:54:06.525Z,29.40
2018-10-17T13:56:39.694Z,29.60
2018-10-17T13:59:16.378Z,30.40
2018-10-17T14:01:45.704Z,31.70
2018-10-17T14:04:15.058Z,33.30
2018-10-17T14:06:46.151Z,34.00
2018-10-17T14:09:22.490Z,33.90
2018-10-17T14:11:51.522Z,33.90
2018-10-17T14:14:21.329Z,33.80
2018-10-17T14:16:50.229Z,33.30
2018-10-17T14:19:19.303Z,33.50
2018-10-17T14:21:48.254Z,32.30
2018-10-17T14:24:17.336Z,31.80
2018-10-17T14:26:46.306Z,31.40
2018-10-17T14:29:15.265Z,31.30
2018-10-17T14:31:44.422Z,31.40
2018-10-17T14:34:13.615Z,31.70
2018-10-17T14:36:42.616Z,31.90
2018-10-17T14:39:12.924Z,32.10
2018-10-17T14:41:41.833Z,32.90
2018-10-17T14:44:11.026Z,32.20
2018-10-17T14:46:39.998Z,32.50
2018-10-17T14:49:08.953Z,33.20
2018-10-17T14:51:38.166Z,34.50
2018-10-17T14:54:08.759Z,36.70
2018-10-17T14:56:38.365Z,37.90
2018-10-17T14:59:07.631Z,39.00
2018-10-17T15:01:36.554Z,40.10
2018-10-17T15:04:05.866Z,41.20
2018-10-17T15:06:40.342Z,43.50
2018-10-17T15:09:10.064Z,42.90
2018-10-17T15:11:40.055Z,43.70
2018-10-17T15:14:09.334Z,44.60
2018-10-17T15:16:38.561Z,45.20
2018-10-17T15:19:07.723Z,45.70
2018-10-17T15:21:36.626Z,46.20
2018-10-17T15:24:05.873Z,46.70
2018-10-17T15:26:34.843Z,47.10
2018-10-17T15:29:04.258Z,47.50
2018-10-17T15:31:36.957Z,48.00
2018-10-17T15:34:05.931Z,48.30
2018-10-17T15:36:34.885Z,48.70
2018-10-17T15:39:04.738Z,48.90
2018-10-17T15:41:33.827Z,49.10
2018-10-17T15:44:02.767Z,51.10
2018-10-17T15:46:31.705Z,51.00
2018-10-17T15:49:00.605Z,50.90
2018-10-17T15:51:29.610Z,51.00
2018-10-17T15:53:58.674Z,51.20
2018-10-17T15:56:27.626Z,51.40
2018-10-17T15:58:56.593Z,51.50
2018-10-17T16:01:25.634Z,51.70
2018-10-17T16:03:54.670Z,51.90
2018-10-17T16:06:23.697Z,52.10
2018-10-17T16:08:52.657Z,52.90
2018-10-17T16:11:41.024Z,52.40
2018-10-17T16:14:11.470Z,52.70
2018-10-17T16:16:40.359Z,52.90
2018-10-17T16:19:09.395Z,53.10
2018-10-17T16:21:39.138Z,53.40
2018-10-17T16:24:08.090Z,53.90
2018-10-17T16:26:36.990Z,54.00
2018-10-17T16:29:06.555Z,54.30
2018-10-17T16:31:35.686Z,54.50
2018-10-17T16:34:04.638Z,54.50
2018-10-17T16:36:33.536Z,54.70
2018-10-17T16:39:03.046Z,54.80
2018-10-17T16:41:32.141Z,54.90
2018-10-17T16:44:01.037Z,55.00
2018-10-17T16:46:29.966Z,55.20
2018-10-17T16:48:58.921Z,56.80
2018-10-17T16:51:27.922Z,56.60
2018-10-17T16:53:56.931Z,56.50
2018-10-17T16:56:25.981Z,56.40
2018-10-17T16:58:55.034Z,56.40
2018-10-17T17:01:24.083Z,56.40
2018-10-17T17:03:53.011Z,56.40
2018-10-17T17:06:21.929Z,56.40
2018-10-17T17:08:50.830Z,56.40
2018-10-17T17:11:19.857Z,56.50
2018-10-17T17:13:48.715Z,56.50
2018-10-17T17:16:18.171Z,56.50
2018-10-17T17:18:47.153Z,56.50
2018-10-17T17:21:16.161Z,56.50
2018-10-17T17:23:45.129Z,56.50
2018-10-17T17:26:14.623Z,56.60
2018-10-17T17:28:43.577Z,56.70
2018-10-17T17:31:12.458Z,56.80
2018-10-17T17:33:41.311Z,57.00
2018-10-17T17:36:10.413Z,57.00
2018-10-17T17:38:39.350Z,57.20
2018-10-17T17:41:09.073Z,57.40
2018-10-17T17:43:38.029Z,59.00
2018-10-17T17:46:07.253Z,58.90
2018-10-17T17:48:36.113Z,58.80
2018-10-17T17:51:05.280Z,58.80
2018-10-17T17:53:34.302Z,58.80
2018-10-17T17:56:03.373Z,58.90
2018-10-17T17:58:32.538Z,58.90
2018-10-17T18:01:01.965Z,58.90
2018-10-17T18:03:30.836Z,59.00
2018-10-17T18:05:59.753Z,59.00
2018-10-17T18:08:29.128Z,59.20
2018-10-17T18:11:07.866Z,59.20
2018-10-17T18:13:36.840Z,59.20
2018-10-17T18:16:06.324Z,59.30
2018-10-17T18:18:35.165Z,59.40
2018-10-17T18:21:04.248Z,59.40
2018-10-17T18:23:36.153Z,59.60
2018-10-17T18:26:12.642Z,59.70
2018-10-17T18:28:46.280Z,59.70
2018-10-17T18:31:15.389Z,59.80
2018-10-17T18:33:45.251Z,59.90
2018-10-17T18:36:14.563Z,60.00
2018-10-17T18:38:47.213Z,60.00
2018-10-17T18:41:17.877Z,60.00
2018-10-17T18:43:54.007Z,60.20
2018-10-17T18:46:23.346Z,60.30
2018-10-17T18:48:53.325Z,60.40
2018-10-17T18:51:24.578Z,60.50
2018-10-17T18:53:53.825Z,60.50
2018-10-17T18:56:32.802Z,60.50
2018-10-17T18:59:08.881Z,60.40
2018-10-17T19:01:41.509Z,60.30
2018-10-17T19:04:18.903Z,60.40
2018-10-17T19:06:49.946Z,60.50
2018-10-17T19:09:19.930Z,60.50
2018-10-17T19:11:49.781Z,60.50
2018-10-17T19:14:18.918Z,60.60
2018-10-17T19:16:48.605Z,60.70
2018-10-17T19:19:20.616Z,60.80
2018-10-17T19:21:51.827Z,61.00
2018-10-17T19:24:22.615Z,61.00
2018-10-17T19:26:52.269Z,61.20
2018-10-17T19:29:21.821Z,61.30
2018-10-17T19:31:50.856Z,61.50
2018-10-17T19:34:20.786Z,61.60
2018-10-17T19:36:49.960Z,61.90
2018-10-17T19:39:21.594Z,62.10
2018-10-17T19:41:55.307Z,62.30
2018-10-17T19:44:24.751Z,62.50
2018-10-17T19:46:54.601Z,62.60
2018-10-17T19:49:25.114Z,62.80
2018-10-17T19:52:03.745Z,63.00
2018-10-17T19:54:36.874Z,63.10
2018-10-17T19:57:07.181Z,63.20
2018-10-17T19:59:38.496Z,63.40
2018-10-17T20:02:10.508Z,63.50
2018-10-17T20:04:43.294Z,63.70
2018-10-17T20:07:13.171Z,63.80
2018-10-17T20:09:43.810Z,63.90
2018-10-17T20:12:13.640Z,64.00
2018-10-17T20:14:43.564Z,64.10
2018-10-17T20:17:12.851Z,64.30
2018-10-17T20:19:43.559Z,64.50
2018-10-17T20:22:13.174Z,64.70
2018-10-17T20:24:42.784Z,64.70
2018-10-17T20:27:12.227Z,65.00
2018-10-17T20:29:41.796Z,65.20
2018-10-17T20:32:18.135Z,66.10
2018-10-17T20:34:50.520Z,66.20
2018-10-17T20:37:26.566Z,66.20
2018-10-17T20:40:04.048Z,66.20
2018-10-17T20:42:42.315Z,66.20
2018-10-17T20:45:15.674Z,66.30
2018-10-17T20:47:48.367Z,66.20
2018-10-17T20:50:21.025Z,66.40
2018-10-17T20:52:58.792Z,66.50
2018-10-17T20:55:38.038Z,66.50
2018-10-17T20:58:11.250Z,66.60
2018-10-17T21:00:41.546Z,66.70
2018-10-17T21:03:11.005Z,69.20
2018-10-17T21:05:40.662Z,68.80
2018-10-17T21:08:14.482Z,68.60
2018-10-17T21:10:44.878Z,68.50
2018-10-17T21:13:14.350Z,68.30
2018-10-17T21:15:43.547Z,68.20
2018-10-17T21:18:12.501Z,68.20
2018-10-17T21:20:41.653Z,68.20
2018-10-17T21:23:10.541Z,68.30
2018-10-17T21:25:39.536Z,70.00
2018-10-17T21:28:09.072Z,69.90
2018-10-17T21:30:38.151Z,69.70
2018-10-17T21:33:07.854Z,69.60
2018-10-17T21:35:37.337Z,69.40
2018-10-17T21:38:06.301Z,69.40
2018-10-17T21:40:35.470Z,69.20
2018-10-17T21:43:04.823Z,69.20
2018-10-17T21:45:33.804Z,69.20
2018-10-17T21:48:03.274Z,69.30
2018-10-17T21:50:33.638Z,69.30
2018-10-17T21:53:03.641Z,69.30
2018-10-17T21:55:32.643Z,69.40
2018-10-17T21:58:01.731Z,69.40
2018-10-17T22:00:31.240Z,69.50
2018-10-17T22:03:00.293Z,69.60
2018-10-17T22:05:29.282Z,69.70
2018-10-17T22:07:58.347Z,69.80
2018-10-17T22:10:27.246Z,69.80
2018-10-17T22:12:56.510Z,69.90
2018-10-17T22:15:25.562Z,69.90
2018-10-17T22:17:55.543Z,71.80
2018-10-17T22:20:25.029Z,72.40
2018-10-17T22:22:54.310Z,71.40
2018-10-17T22:25:23.624Z,71.20
2018-10-17T22:27:52.899Z,71.10
2018-10-17T22:33:34.857Z,71.00
2018-10-17T22:36:04.958Z,72.80
2018-10-17T22:38:33.821Z,72.50
2018-10-17T22:41:02.847Z,72.30
2018-10-17T22:43:32.545Z,72.10
2018-10-17T22:46:02.159Z,72.00
2018-10-17T22:48:31.453Z,71.80
2018-10-17T22:51:00.841Z,71.80
2018-10-17T22:53:29.938Z,71.70
2018-10-17T22:55:59.140Z,71.80
2018-10-17T22:58:28.142Z,71.70
2018-10-17T23:00:57.153Z,71.70
2018-10-17T23:03:26.449Z,71.70
2018-10-17T23:05:56.468Z,71.60
2018-10-17T23:08:25.972Z,71.70
2018-10-17T23:10:55.462Z,71.70
2018-10-17T23:13:25.053Z,71.70
2018-10-17T23:15:54.229Z,71.80
2018-10-17T23:18:23.445Z,71.70
2018-10-17T23:20:52.637Z,71.80
2018-10-17T23:23:22.681Z,71.70
2018-10-17T23:25:52.043Z,71.80
2018-10-17T23:28:21.292Z,71.80
2018-10-17T23:30:50.562Z,71.70
2018-10-17T23:33:19.938Z,71.70
2018-10-17T23:35:49.173Z,71.80
2018-10-17T23:38:18.418Z,71.70
2018-10-17T23:40:47.626Z,71.80
2018-10-17T23:43:16.789Z,71.80
2018-10-17T23:45:45.773Z,71.90
2018-10-17T23:48:16.280Z,71.80
2018-10-17T23:50:46.218Z,71.90
2018-10-17T23:53:15.897Z,71.80
2018-10-17T23:55:44.785Z,71.90
2018-10-17T23:58:14.021Z,71.90
